Time;durP1;ratioP1;P1;durP2;ratioP2;P2;SDS_P1;SDS_P2;PMS_P1;PMS_P2;Temp;Humidity;BMP_temperature;BMP_pressure;BME280_temperature;BME280_humidity;BME280_pressure;Samples;Min_cycle;Max_cycle;Signal;HPM_P1;HPM_P2
2023/02/09 00:01:30;;;;;;;37.60;17.98;;;0.10;2201.60;;;;;;5099683;28;20030;-76
2023/02/09 00:03:57;;;;;;;38.25;19.88;;;0.10;2201.60;;;;;;5081258;28;20035;-76
2023/02/09 00:06:25;;;;;;;39.75;19.25;;;0.00;2201.60;;;;;;5087008;28;20029;-76
2023/02/09 00:08:52;;;;;;;46.20;18.77;;;13.00;2201.60;;;;;;5080698;28;20024;-78
2023/02/09 00:13:21;;;;;;;42.30;17.88;;;13.00;2201.60;;;;;;5087799;28;20500;-76
2023/02/09 00:14:14;;;;;;;35.33;16.08;;;13.00;2201.60;;;;;;5085815;28;20043;-77
2023/02/09 00:16:40;;;;;;;37.35;17.50;;;13.20;2201.60;;;;;;5089710;28;20033;-77
2023/02/09 00:19:08;;;;;;;36.88;15.95;;;13.20;2201.60;;;;;;5092825;28;20024;-77
2023/02/09 00:21:34;;;;;;;37.10;16.90;;;13.00;2201.60;;;;;;5090986;28;20031;-76
2023/02/09 00:23:59;;;;;;;;;;;12.90;2201.60;;;;;;5079115;28;20559;-78
2023/02/09 00:40:20;;;;;;;33.38;15.05;;;13.20;2201.60;;;;;;5006381;22;20540;-74
2023/02/09 00:42:45;;;;;;;;;;;13.40;2201.60;;;;;;5031624;28;20037;-74
2023/02/09 00:45:12;;;;;;;34.40;16.02;;;13.40;2201.60;;;;;;5045717;28;19909;-75
2023/02/09 00:47:38;;;;;;;28.15;13.50;;;13.50;2201.60;;;;;;5045520;28;20078;-76
2023/02/09 00:50:05;;;;;;;;;;;13.70;2201.60;;;;;;5047986;28;20024;-76
2023/02/09 00:52:32;;;;;;;35.47;14.63;;;38.40;2201.60;;;;;;5048776;28;19909;-76
2023/02/09 00:54:57;;;;;;;32.80;15.52;;;13.50;2201.60;;;;;;5049347;28;20021;-76
2023/02/09 00:57:23;;;;;;;;;;;38.50;2201.60;;;;;;5040711;28;20119;-74
2023/02/09 00:59:49;;;;;;;34.85;13.77;;;38.50;2201.60;;;;;;5048573;28;19919;-74
2023/02/09 01:02:15;;;;;;;;;;;38.50;2201.60;;;;;;5052374;28;20047;-75
2023/02/09 01:04:40;;;;;;;37.65;15.45;;;38.50;2201.60;;;;;;5034181;28;19958;-76
2023/02/09 01:07:06;;;;;;;;;;;38.50;2201.60;;;;;;5028055;28;20033;-74
2023/02/09 01:09:31;;;;;;;28.33;13.38;;;38.50;2201.60;;;;;;5033289;28;19917;-77
2023/02/09 01:11:57;;;;;;;;;;;38.50;2201.60;;;;;;5028172;28;20026;-75
2023/02/09 01:14:23;;;;;;;24.58;12.82;;;38.40;2201.60;;;;;;5041614;28;19999;-76
2023/02/09 01:16:48;;;;;;;;;;;38.40;2201.60;;;;;;5034021;28;20030;-75
2023/02/09 01:19:15;;;;;;;24.20;12.63;;;38.40;2201.60;;;;;;5029099;28;19917;-75
2023/02/09 01:21:40;;;;;;;;;;;38.40;2201.60;;;;;;5033928;28;20025;-74
2023/02/09 01:24:06;;;;;;;22.45;10.85;;;13.60;2201.60;;;;;;5031927;28;19952;-75
2023/02/09 01:26:32;;;;;;;;;;;13.50;2201.60;;;;;;5040852;28;20068;-76
2023/02/09 01:28:57;;;;;;;26.17;13.75;;;13.50;2201.60;;;;;;5030386;28;19909;-75
2023/02/09 01:31:25;;;;;;;;;;;13.40;2201.60;;;;;;5045025;28;20033;-75
2023/02/09 01:33:52;;;;;;;22.52;10.73;;;13.20;2201.60;;;;;;5037683;28;20104;-75
2023/02/09 01:36:18;;;;;;;27.02;13.30;;;13.10;2201.60;;;;;;5037137;28;20034;-75
2023/02/09 01:38:44;;;;;;;;;;;12.90;2201.60;;;;;;5033870;28;20360;-75
2023/02/09 01:41:09;;;;;;;33.47;14.75;;;0.10;2201.60;;;;;;5048117;28;19923;-74
2023/02/09 01:43:53;;;;;;;;;;;0.20;2201.60;;;;;;5050205;28;20037;-75
2023/02/09 01:46:21;;;;;;;26.08;13.05;;;0.30;2201.60;;;;;;5040286;28;19909;-75
2023/02/09 01:48:50;;;;;;;31.85;14.85;;;0.40;2201.60;;;;;;5055792;28;20037;-75
2023/02/09 01:51:16;;;;;;;33.85;14.73;;;0.40;2201.60;;;;;;5039753;28;20071;-75
2023/02/09 01:53:43;;;;;;;;;;;0.40;2201.60;;;;;;5051619;28;20390;-75
2023/02/09 01:56:11;;;;;;;;;;;0.50;2201.60;;;;;;5028059;28;20003;-74
2023/02/09 01:58:37;;;;;;;25.75;12.65;;;0.40;2201.60;;;;;;5059040;28;19935;-75
2023/02/09 02:01:03;;;;;;;31.17;13.50;;;0.40;2201.60;;;;;;5047164;28;20025;-75
2023/02/09 02:03:29;;;;;;;;;;;0.40;2201.60;;;;;;5049360;28;20033;-75
2023/02/09 02:06:01;;;;;;;23.45;10.63;;;0.50;2201.60;;;;;;5027150;28;20394;-75
2023/02/09 02:08:38;;;;;;;26.15;12.98;;;0.40;2201.60;;;;;;5027463;28;20120;-75
2023/02/09 02:11:06;;;;;;;33.92;15.52;;;0.50;2201.60;;;;;;5032150;28;20033;-75
2023/02/09 02:13:31;;;;;;;32.05;15.95;;;0.40;2201.60;;;;;;5057190;28;20033;-75
2023/02/09 02:16:15;;;;;;;;;;;0.20;2201.60;;;;;;5032762;28;20033;-75
2023/02/09 02:19:23;;;;;;;34.65;16.35;;;0.00;2201.60;;;;;;5028170;28;19909;-76
2023/02/09 02:22:11;;;;;;;26.00;12.30;;;12.90;2201.60;;;;;;5050665;28;20120;-76
2023/02/09 02:25:23;;;;;;;31.90;14.05;;;13.00;2201.60;;;;;;5050868;28;20026;-76
2023/02/09 02:28:06;;;;;;;27.83;14.15;;;13.20;2201.60;;;;;;4953981;28;20070;-76
2023/02/09 02:31:30;;;;;;;28.20;11.18;;;13.30;2201.60;;;;;;4977521;28;20100;-78
2023/02/09 02:33:56;;;;;;;23.08;10.55;;;13.40;2201.60;;;;;;4973115;28;20027;-76
2023/02/09 02:36:24;;;;;;;;;;;13.40;2201.60;;;;;;4958560;28;20118;-79
2023/02/09 02:38:53;;;;;;;23.50;11.88;;;13.40;2201.60;;;;;;4973543;28;20070;-76
2023/02/09 02:41:27;;;;;;;24.48;12.80;;;13.40;2201.60;;;;;;4982262;28;20477;-76
2023/02/09 02:43:58;;;;;;;23.42;10.88;;;13.50;2201.60;;;;;;4959370;28;20129;-77
2023/02/09 02:46:42;;;;;;;25.63;11.90;;;13.50;2201.60;;;;;;4957880;28;20105;-76
2023/02/09 02:49:36;;;;;;;22.35;11.32;;;13.60;2201.60;;;;;;4974139;28;20524;-76
2023/02/09 02:52:05;;;;;;;24.83;11.55;;;13.50;2201.60;;;;;;4982089;28;20047;-76
2023/02/09 02:54:37;;;;;;;26.25;12.65;;;13.50;2201.60;;;;;;4973562;28;20050;-77
2023/02/09 02:57:11;;;;;;;31.88;12.10;;;13.50;2201.60;;;;;;4985775;28;20046;-76
2023/02/09 02:59:52;;;;;;;26.42;11.75;;;13.40;2201.60;;;;;;4957566;28;20019;-75
2023/02/09 03:02:29;;;;;;;27.25;11.02;;;13.40;2201.60;;;;;;4986338;28;20142;-76
2023/02/09 03:04:57;;;;;;;25.15;11.73;;;13.40;2201.60;;;;;;5023124;28;20079;-76
2023/02/09 03:07:23;;;;;;;29.85;14.07;;;13.40;2201.60;;;;;;5052981;28;20017;-77
2023/02/09 03:09:50;;;;;;;22.88;10.80;;;13.40;2201.60;;;;;;5052533;28;20111;-76
2023/02/09 03:12:34;;;;;;;24.60;11.35;;;13.50;2201.60;;;;;;5054097;28;20025;-77
2023/02/09 03:15:06;;;;;;;23.55;11.05;;;13.40;2201.60;;;;;;5052844;28;20108;-76
2023/02/09 03:17:46;;;;;;;25.48;12.05;;;13.50;2201.60;;;;;;5052743;28;20036;-77
2023/02/09 03:20:21;;;;;;;25.23;10.93;;;13.40;2201.60;;;;;;5052913;28;20028;-78
2023/02/09 03:22:55;;;;;;;22.33;9.93;;;13.40;2201.60;;;;;;5054056;28;20143;-77
2023/02/09 03:25:33;;;;;;;23.85;11.30;;;13.40;2201.60;;;;;;5052438;28;20017;-77
2023/02/09 03:28:13;;;;;;;24.33;10.95;;;13.30;2201.60;;;;;;5052199;28;20033;-76
2023/02/09 03:30:41;;;;;;;22.63;11.57;;;13.40;2201.60;;;;;;5053844;28;20017;-76
2023/02/09 03:33:20;;;;;;;23.58;10.90;;;13.40;2201.60;;;;;;5052406;28;20386;-76
2023/02/09 03:35:50;;;;;;;24.20;11.73;;;13.30;2201.60;;;;;;5053968;28;20034;-76
2023/02/09 03:38:15;;;;;;;23.50;11.73;;;13.10;2201.60;;;;;;5053271;28;20036;-76
2023/02/09 03:40:41;;;;;;;;;;;13.00;2201.60;;;;;;5053938;28;20057;-76
2023/02/09 03:43:07;;;;;;;21.95;10.50;;;13.10;2201.60;;;;;;5051995;28;19912;-76
2023/02/09 03:45:32;;;;;;;;;;;13.20;2201.60;;;;;;5052768;28;20025;-76
2023/02/09 03:47:58;;;;;;;21.63;10.43;;;13.20;2201.60;;;;;;5053369;28;19905;-77
2023/02/09 03:50:24;;;;;;;;;;;13.10;2201.60;;;;;;5052118;28;20116;-76
2023/02/09 03:52:49;;;;;;;26.05;11.48;;;13.20;2201.60;;;;;;5052258;28;20311;-75
2023/02/09 03:55:15;;;;;;;;;;;13.30;2201.60;;;;;;5052592;28;20432;-79
2023/02/09 03:57:41;;;;;;;27.38;11.23;;;13.30;2201.60;;;;;;5051714;28;19904;-75
2023/02/09 04:00:07;;;;;;;;;;;13.40;2201.60;;;;;;5052272;28;20512;-74
2023/02/09 04:02:32;;;;;;;23.75;11.30;;;13.50;2201.60;;;;;;5051611;28;19919;-75
2023/02/09 04:04:58;;;;;;;;;;;13.50;2201.60;;;;;;5052590;28;20029;-76
2023/02/09 04:07:24;;;;;;;26.50;12.30;;;13.60;2201.60;;;;;;5052859;28;19908;-77
2023/02/09 04:09:49;;;;;;;;;;;13.60;2201.60;;;;;;5053151;28;20053;-76
2023/02/09 04:12:15;;;;;;;25.77;10.70;;;13.50;2201.60;;;;;;5053313;28;19912;-76
2023/02/09 04:14:40;;;;;;;;;;;13.40;2201.60;;;;;;5053494;28;20111;-76
2023/02/09 04:17:06;;;;;;;23.50;11.05;;;13.50;2201.60;;;;;;5037805;28;19909;-76
2023/02/09 04:19:32;;;;;;;;;;;13.60;2201.60;;;;;;5052069;28;20029;-75
2023/02/09 04:21:57;;;;;;;24.33;11.50;;;13.60;2201.60;;;;;;5053141;28;19978;-76
2023/02/09 04:24:23;;;;;;;;;;;13.60;2201.60;;;;;;5052464;28;20025;-76
2023/02/09 04:26:49;;;;;;;22.90;11.40;;;13.70;2201.60;;;;;;5038557;28;19908;-79
2023/02/09 04:29:14;;;;;;;;;;;13.60;2201.60;;;;;;5052269;28;20049;-77
2023/02/09 04:31:41;;;;;;;24.20;11.93;;;13.60;2201.60;;;;;;5051895;28;19963;-76
2023/02/09 04:34:06;;;;;;;23.08;11.38;;;13.60;2201.60;;;;;;5051683;28;20397;-74
2023/02/09 04:36:32;;;;;;;;;;;13.50;2201.60;;;;;;5052116;28;20019;-76
2023/02/09 04:38:57;;;;;;;21.27;11.20;;;13.20;2201.60;;;;;;5051463;28;19913;-76
2023/02/09 04:41:23;;;;;;;;;;;13.00;2201.60;;;;;;5051605;28;20490;-76
2023/02/09 04:43:49;;;;;;;25.23;11.55;;;12.90;2201.60;;;;;;5053196;28;19944;-75
2023/02/09 04:46:15;;;;;;;;;;;12.90;2201.60;;;;;;5051791;28;20438;-76
2023/02/09 04:48:41;;;;;;;19.57;8.07;;;12.90;2201.60;;;;;;5041884;28;19904;-76
2023/02/09 04:51:07;;;;;;;24.17;12.48;;;13.10;2201.60;;;;;;5052757;28;20074;-76
2023/02/09 04:53:33;;;;;;;;;;;13.50;2201.60;;;;;;5052070;28;20116;-76
2023/02/09 04:55:58;;;;;;;21.92;11.10;;;13.70;2201.60;;;;;;5051143;28;19905;-76
2023/02/09 05:01:13;;;;;;;26.95;12.85;;;38.50;2201.60;;;;;;5052762;28;19912;-76
2023/02/09 05:03:39;;;;;;;24.60;11.57;;;38.50;2201.60;;;;;;5052588;28;20036;-76
2023/02/09 05:06:04;;;;;;;;;;;13.70;2201.60;;;;;;5052805;28;20029;-76
2023/02/09 05:08:30;;;;;;;23.55;10.60;;;13.70;2201.60;;;;;;5051528;28;19912;-76
2023/02/09 05:10:56;;;;;;;26.20;12.32;;;38.50;2201.60;;;;;;5038527;28;20098;-76
2023/02/09 05:13:23;;;;;;;;;;;38.40;2201.60;;;;;;5052102;28;20064;-76
2023/02/09 05:15:48;;;;;;;20.30;9.97;;;38.50;2201.60;;;;;;5051149;28;19905;-76
2023/02/09 05:18:14;;;;;;;;;;;38.70;2201.60;;;;;;5051700;28;20040;-76
2023/02/09 05:20:41;;;;;;;23.63;12.93;;;38.50;2201.60;;;;;;5051775;28;20361;-75
2023/02/09 05:23:06;;;;;;;26.42;12.75;;;13.70;2201.60;;;;;;5054892;28;20132;-76
2023/02/09 05:25:32;;;;;;;;;;;13.50;2201.60;;;;;;5055484;28;20438;-76
2023/02/09 05:27:58;;;;;;;27.13;13.35;;;13.60;2201.60;;;;;;5054537;28;19974;-76
2023/02/09 05:30:25;;;;;;;;;;;38.60;2201.60;;;;;;5055455;28;20017;-76
2023/02/09 05:32:51;;;;;;;25.48;12.70;;;38.80;2201.60;;;;;;5054737;28;19905;-76
2023/02/09 05:35:17;;;;;;;23.58;11.82;;;39.00;2201.60;;;;;;5054920;28;20090;-76
2023/02/09 05:37:42;;;;;;;;;;;39.10;2201.60;;;;;;5056218;28;20029;-76
2023/02/09 05:40:08;;;;;;;24.63;11.38;;;39.00;2201.60;;;;;;5054330;28;19918;-75
2023/02/09 05:42:34;;;;;;;32.08;13.57;;;39.10;2201.60;;;;;;5055647;28;20086;-76
2023/02/09 05:45:00;;;;;;;;;;;64.00;2201.60;;;;;;5054726;28;20504;-76
2023/02/09 05:47:25;;;;;;;28.27;12.10;;;64.20;2201.60;;;;;;5054242;28;19958;-75
2023/02/09 05:49:51;;;;;;;;;;;64.30;2201.60;;;;;;5051489;28;20071;-79
2023/02/09 05:52:18;;;;;;;29.63;12.38;;;64.40;2201.60;;;;;;5047951;28;19909;-76
2023/02/09 05:54:45;;;;;;;23.90;11.88;;;64.40;2201.60;;;;;;5027590;28;20027;-76
2023/02/09 05:57:11;;;;;;;28.73;12.55;;;64.30;2201.60;;;;;;5054622;28;20451;-75
2023/02/09 05:59:37;;;;;;;;;;;64.00;2201.60;;;;;;5054646;28;20045;-76
2023/02/09 06:02:03;;;;;;;38.45;14.13;;;39.30;2201.60;;;;;;5054398;28;20003;-76
2023/02/09 06:04:29;;;;;;;26.05;13.15;;;39.10;2201.60;;;;;;5055794;28;20048;-77
2023/02/09 06:06:55;;;;;;;30.25;12.77;;;39.00;2201.60;;;;;;5054413;28;20021;-75
2023/02/09 06:09:20;;;;;;;;;;;38.90;2201.60;;;;;;5054472;28;20076;-76
2023/02/09 06:11:46;;;;;;;43.47;17.73;;;38.80;2201.60;;;;;;5054058;28;19909;-75
2023/02/09 06:14:12;;;;;;;;;;;38.80;2201.60;;;;;;5054632;28;20108;-76
2023/02/09 06:16:39;;;;;;;37.15;15.73;;;38.60;2201.60;;;;;;5054506;28;20418;-76
2023/02/09 06:19:06;;;;;;;28.00;13.43;;;38.90;2201.60;;;;;;5053744;28;20017;-77
2023/02/09 06:21:32;;;;;;;24.00;11.57;;;39.00;2201.60;;;;;;5053793;28;20053;-79
2023/02/09 06:23:57;;;;;;;;;;;38.90;2201.60;;;;;;5054313;28;20029;-76
2023/02/09 06:26:23;;;;;;;27.75;12.45;;;38.90;2201.60;;;;;;5046898;28;20376;-75
2023/02/09 06:28:49;;;;;;;;;;;38.70;2201.60;;;;;;5051779;28;20037;-75
2023/02/09 06:31:15;;;;;;;20.23;9.57;;;38.80;2201.60;;;;;;5041970;28;19990;-75
2023/02/09 06:33:40;;;;;;;;;;;38.90;2201.60;;;;;;5043132;28;20497;-75
2023/02/09 06:36:07;;;;;;;28.33;13.02;;;39.00;2201.60;;;;;;5072404;28;20396;-78
2023/02/09 06:38:34;;;;;;;32.50;13.20;;;39.00;2201.60;;;;;;5040059;28;20031;-76
2023/02/09 06:41:00;;;;;;;30.92;13.75;;;38.90;2201.60;;;;;;5040279;28;20114;-75
2023/02/09 06:43:25;;;;;;;;;;;38.90;2201.60;;;;;;5058262;28;20498;-76
2023/02/09 06:45:52;;;;;;;28.77;12.23;;;38.80;2201.60;;;;;;5066998;28;19919;-76
2023/02/09 06:48:18;;;;;;;30.58;12.68;;;38.70;2201.60;;;;;;5047378;28;20119;-75
2023/02/09 06:50:44;;;;;;;;;;;38.60;2201.60;;;;;;5049177;28;20457;-76
2023/02/09 06:53:09;;;;;;;21.40;10.82;;;13.70;2201.60;;;;;;5061326;28;19991;-76
2023/02/09 06:55:35;;;;;;;;;;;13.60;2201.60;;;;;;5042961;28;20032;-76
2023/02/09 06:58:00;;;;;;;33.00;13.00;;;13.60;2201.60;;;;;;5046395;28;19912;-75
2023/02/09 07:00:26;;;;;;;;;;;13.50;2201.60;;;;;;5047640;28;20477;-76
2023/02/09 07:02:52;;;;;;;21.77;10.98;;;13.40;2201.60;;;;;;5043104;28;19920;-74
2023/02/09 07:05:19;;;;;;;27.85;12.68;;;13.30;2201.60;;;;;;5036566;28;20021;-77
2023/02/09 07:07:45;;;;;;;26.73;11.70;;;13.40;2201.60;;;;;;5028184;28;20379;-78
2023/02/09 07:10:12;;;;;;;;;;;13.40;2201.60;;;;;;5045290;28;20489;-79
2023/02/09 07:12:39;;;;;;;18.70;8.65;;;13.20;2201.60;;;;;;5044783;28;19908;-74
2023/02/09 07:15:06;;;;;;;29.25;13.02;;;13.20;2201.60;;;;;;5049292;28;20032;-76
2023/02/09 07:17:32;;;;;;;27.42;12.02;;;13.20;2201.60;;;;;;5049536;28;20377;-75
2023/02/09 07:19:58;;;;;;;;;;;13.20;2201.60;;;;;;5046349;28;20035;-75
2023/02/09 07:22:26;;;;;;;26.70;11.93;;;13.10;2201.60;;;;;;5049641;28;19912;-75
2023/02/09 07:24:52;;;;;;;24.40;12.40;;;13.00;2201.60;;;;;;5043617;28;20025;-79
2023/02/09 07:27:18;;;;;;;;;;;12.90;2201.60;;;;;;5047259;28;20044;-75
2023/02/09 07:29:44;;;;;;;31.08;12.68;;;0.40;2201.60;;;;;;5047946;28;20003;-78
2023/02/09 07:32:10;;;;;;;;;;;13.00;2201.60;;;;;;5050593;28;20051;-74
2023/02/09 07:34:35;;;;;;;27.38;13.07;;;13.00;2201.60;;;;;;5048921;28;19976;-74
2023/02/09 07:37:01;;;;;;;;;;;13.00;2201.60;;;;;;5061154;28;20029;-74
2023/02/09 07:39:27;;;;;;;25.25;12.80;;;0.00;2201.60;;;;;;5040976;28;19917;-74
2023/02/09 07:41:52;;;;;;;;;;;0.10;2201.60;;;;;;5051017;28;20029;-76
2023/02/09 07:44:18;;;;;;;27.35;12.00;;;0.20;2201.60;;;;;;5048742;28;19909;-76
2023/02/09 07:46:44;;;;;;;;;;;0.10;2201.60;;;;;;5035397;28;20036;-74
2023/02/09 07:49:10;;;;;;;23.60;11.93;;;0.20;2201.60;;;;;;5059480;28;20006;-76
2023/02/09 07:51:36;;;;;;;26.75;12.90;;;0.30;2201.60;;;;;;5047811;28;20028;-76
2023/02/09 07:54:02;;;;;;;;;;;0.40;2201.60;;;;;;5038265;28;20406;-75
2023/02/09 07:56:28;;;;;;;26.05;11.15;;;0.50;2201.60;;;;;;5036135;28;19912;-74
2023/02/09 07:58:54;;;;;;;;;;;0.60;2201.60;;;;;;5025092;28;20026;-76
2023/02/09 08:01:20;;;;;;;28.33;12.10;;;0.70;2201.60;;;;;;5039282;28;20258;-77
2023/02/09 08:03:48;;;;;;;26.75;12.07;;;0.60;2201.60;;;;;;5041040;28;20170;-77
2023/02/09 08:06:38;;;;;;;25.42;10.95;;;0.80;2201.60;;;;;;5041795;28;20467;-76
2023/02/09 08:09:05;;;;;;;23.95;10.30;;;0.90;2201.60;;;;;;5046770;28;20028;-75
2023/02/09 08:11:41;;;;;;;25.10;10.45;;;25.70;2201.60;;;;;;5037091;28;20032;-74
2023/02/09 08:14:17;;;;;;;17.55;8.20;;;25.60;2201.60;;;;;;5044996;28;20028;-74
2023/02/09 08:16:45;;;;;;;24.77;12.05;;;25.80;2201.60;;;;;;5060414;28;20497;-74
2023/02/09 08:19:15;;;;;;;19.50;8.65;;;25.80;2201.60;;;;;;5060933;28;20173;-76
2023/02/09 08:21:44;;;;;;;23.48;10.57;;;25.70;2201.60;;;;;;5025827;28;20040;-75
2023/02/09 08:24:11;;;;;;;22.45;10.60;;;25.90;2201.60;;;;;;5056518;28;20036;-73
2023/02/09 08:26:38;;;;;;;25.77;10.88;;;25.80;2201.60;;;;;;5046607;28;20111;-74
2023/02/09 08:29:06;;;;;;;22.25;10.73;;;25.90;2201.60;;;;;;5044948;28;20120;-74
2023/02/09 08:31:32;;;;;;;25.17;11.57;;;25.90;2201.60;;;;;;5050572;28;20021;-75
2023/02/09 08:33:57;;;;;;;;;;;26.10;2201.60;;;;;;5057755;28;20086;-73
2023/02/09 08:36:23;;;;;;;21.02;10.63;;;26.00;2201.60;;;;;;5038000;28;19971;-75
2023/02/09 08:38:49;;;;;;;;;;;26.10;2201.60;;;;;;5041693;28;20045;-73
2023/02/09 08:41:16;;;;;;;20.88;10.55;;;26.10;2201.60;;;;;;5056110;28;20362;-74
2023/02/09 08:43:50;;;;;;;23.27;10.68;;;26.10;2201.60;;;;;;5050002;28;20037;-73
2023/02/09 08:46:16;;;;;;;26.00;11.73;;;26.20;2201.60;;;;;;5051655;28;20025;-72
2023/02/09 08:48:44;;;;;;;25.38;11.38;;;26.30;2201.60;;;;;;5036954;28;20466;-74
2023/02/09 08:51:12;;;;;;;24.85;10.93;;;26.50;2201.60;;;;;;5034809;28;20504;-73
2023/02/09 08:53:38;;;;;;;20.90;10.25;;;51.20;2227.20;;;;;;5042869;28;20028;-73
2023/02/09 08:56:04;;;;;;;19.48;10.27;;;26.50;2201.60;;;;;;5046595;28;20035;-73
2023/02/09 08:58:32;;;;;;;18.25;9.13;;;51.20;2227.20;;;;;;5046193;28;20039;-73
2023/02/09 09:00:59;;;;;;;17.75;8.70;;;51.30;2227.20;;;;;;5060073;28;20021;-73
2023/02/09 09:03:30;;;;;;;17.65;8.00;;;51.30;2227.20;;;;;;5039919;28;20037;-73
2023/02/09 09:06:06;;;;;;;17.85;9.13;;;51.40;2227.20;;;;;;5034807;28;20047;-72
2023/02/09 09:08:35;;;;;;;17.33;9.68;;;51.50;2227.20;;;;;;5034603;28;20434;-73
2023/02/09 09:11:00;;;;;;;19.17;8.75;;;51.50;2227.20;;;;;;5034075;28;20032;-72
2023/02/09 09:13:26;;;;;;;;;;;51.70;2227.20;;;;;;5046278;28;20529;-73
2023/02/09 09:15:54;;;;;;;13.07;6.93;;;51.80;2227.20;;;;;;5056941;28;19940;-72
2023/02/09 09:18:20;;;;;;;20.02;8.85;;;51.80;2227.20;;;;;;5032457;28;20116;-73
2023/02/09 09:20:46;;;;;;;15.50;7.88;;;51.80;2227.20;;;;;;5056410;28;20095;-73
2023/02/09 09:23:12;;;;;;;;;;;51.90;2227.20;;;;;;5047437;28;20478;-72
2023/02/09 09:25:38;;;;;;;14.55;7.03;;;52.00;2227.20;;;;;;5059800;28;19950;-71
2023/02/09 09:28:05;;;;;;;18.58;7.78;;;52.00;2227.20;;;;;;5048524;28;20024;-72
2023/02/09 09:30:31;;;;;;;11.82;6.43;;;51.90;2227.20;;;;;;5035089;28;20437;-72
2023/02/09 09:32:56;;;;;;;;;;;51.90;2176.00;;;;;;5044003;28;20033;-73
2023/02/09 09:35:22;;;;;;;13.85;6.35;;;52.10;2201.60;;;;;;5033136;28;20365;-71
2023/02/09 09:37:48;;;;;;;;;;;76.90;2176.00;;;;;;5059368;28;20075;-71
2023/02/09 09:40:21;;;;;;;16.08;7.07;;;77.00;2176.00;;;;;;5049809;28;19913;-74
2023/02/09 09:42:59;;;;;;;18.98;7.25;;;77.20;2099.20;;;;;;5051864;28;20040;-74
2023/02/09 09:45:29;;;;;;;15.60;7.75;;;77.40;2150.40;;;;;;5051030;28;20021;-73
2023/02/09 09:47:55;;;;;;;18.42;8.02;;;77.50;2099.20;;;;;;5057316;28;20059;-73
2023/02/09 09:50:28;;;;;;;12.63;5.25;;;77.70;2099.20;;;;;;5047455;28;20108;-72
2023/02/09 09:53:07;;;;;;;13.10;5.82;;;77.50;1996.80;;;;;;5041957;28;20026;-74
2023/02/09 09:55:34;;;;;;;15.95;7.75;;;77.50;1996.80;;;;;;5027569;28;20032;-73
2023/02/09 09:58:03;;;;;;;15.05;7.68;;;77.60;1945.60;;;;;;5059157;28;20477;-75
2023/02/09 10:00:36;;;;;;;12.73;7.00;;;77.60;1945.60;;;;;;5051428;28;20020;-75
2023/02/09 10:03:03;;;;;;;13.68;6.18;;;102.50;1971.20;;;;;;5051275;28;20044;-72
2023/02/09 10:05:38;;;;;;;15.77;6.90;;;102.60;1920.00;;;;;;5057898;28;20029;-74
2023/02/09 10:08:22;;;;;;;14.65;6.82;;;102.80;1894.40;;;;;;5043344;28;20021;-75
2023/02/09 10:11:04;;;;;;;12.77;5.75;;;102.90;1868.80;;;;;;5044408;28;20024;-73
2023/02/09 10:13:39;;;;;;;15.70;7.68;;;102.90;1868.80;;;;;;5031378;28;20033;-73
2023/02/09 10:16:24;;;;;;;14.02;6.35;;;103.20;1843.20;;;;;;5034507;28;20087;-74
2023/02/09 10:18:58;;;;;;;13.48;6.95;;;103.30;1817.60;;;;;;5036641;28;20064;-74
2023/02/09 10:21:27;;;;;;;13.55;6.78;;;128.00;1817.60;;;;;;5029848;28;20033;-73
2023/02/09 10:23:59;;;;;;;12.80;6.43;;;128.10;1817.60;;;;;;5053100;28;20524;-73
2023/02/09 10:26:27;;;;;;;15.45;8.20;;;128.20;1792.00;;;;;;5035251;28;20032;-74
2023/02/09 10:28:59;;;;;;;14.63;7.70;;;128.20;1766.40;;;;;;5042939;28;20117;-71
2023/02/09 10:31:31;;;;;;;13.60;6.75;;;128.30;1766.40;;;;;;5043335;28;20493;-74
2023/02/09 10:34:09;;;;;;;10.65;6.03;;;128.30;1766.40;;;;;;5063226;28;20047;-75
2023/02/09 10:36:51;;;;;;;18.95;7.05;;;128.40;1740.80;;;;;;5053319;28;20029;-74
2023/02/09 10:39:30;;;;;;;13.43;7.30;;;128.60;1740.80;;;;;;5055780;28;20428;-74
2023/02/09 10:42:18;;;;;;;15.38;6.18;;;128.90;1715.20;;;;;;5039108;28;20493;-73
2023/02/09 10:44:50;;;;;;;13.65;7.15;;;128.90;1715.20;;;;;;5051130;28;20084;-74
2023/02/09 10:47:18;;;;;;;15.93;7.00;;;128.70;1715.20;;;;;;5066693;28;20047;-74
2023/02/09 10:49:51;;;;;;;13.70;5.65;;;153.60;1740.80;;;;;;5060124;28;20017;-73
2023/02/09 10:52:20;;;;;;;16.10;7.05;;;153.70;1664.00;;;;;;5038125;28;20033;-74
2023/02/09 10:54:48;;;;;;;12.57;6.50;;;153.80;1638.40;;;;;;5054991;28;20087;-75
2023/02/09 10:57:30;;;;;;;14.25;6.57;;;153.60;1664.00;;;;;;5052952;28;20036;-75
2023/02/09 10:59:58;;;;;;;13.13;5.95;;;153.80;1664.00;;;;;;5048171;28;20044;-74
2023/02/09 11:02:49;;;;;;;15.73;7.25;;;153.90;1664.00;;;;;;5042087;28;20038;-74
2023/02/09 11:05:35;;;;;;;16.98;7.05;;;179.20;1638.40;;;;;;5022241;28;20506;-76
2023/02/09 11:08:21;;;;;;;13.27;7.25;;;154.50;1612.80;;;;;;5029999;28;20070;-74
2023/02/09 11:11:03;;;;;;;17.95;6.25;;;154.30;1612.80;;;;;;5030358;28;20082;-74
2023/02/09 11:13:31;;;;;;;13.45;6.65;;;154.50;1612.80;;;;;;5047472;28;20099;-74
2023/02/09 11:16:24;;;;;;;12.38;6.30;;;179.20;1587.20;;;;;;5049609;28;20020;-74
2023/02/09 11:18:58;;;;;;;12.82;6.43;;;179.20;1561.60;;;;;;5035810;28;20441;-73
2023/02/09 11:21:34;;;;;;;15.27;6.40;;;179.80;1536.00;;;;;;5058415;28;20107;-74
2023/02/09 11:24:19;;;;;;;12.90;6.20;;;179.90;1510.40;;;;;;5043503;28;20086;-74
2023/02/09 11:27:11;;;;;;;12.38;6.82;;;179.70;1536.00;;;;;;5063331;28;20025;-75
2023/02/09 11:29:47;;;;;;;15.40;6.47;;;179.70;1510.40;;;;;;5060746;28;20110;-76
2023/02/09 11:32:40;;;;;;;9.07;5.50;;;179.50;1510.40;;;;;;5057628;28;20016;-75
2023/02/09 11:35:17;;;;;;;14.75;8.02;;;179.90;1510.40;;;;;;5047042;28;20051;-75
2023/02/09 11:37:53;;;;;;;12.68;6.55;;;179.50;1510.40;;;;;;5057128;28;20373;-75
2023/02/09 11:40:40;;;;;;;17.23;6.93;;;179.80;1510.40;;;;;;5037608;28;20050;-77
2023/02/09 11:43:25;;;;;;;12.30;6.55;;;179.50;1510.40;;;;;;5043487;28;20132;-75
2023/02/09 11:45:57;;;;;;;11.60;5.90;;;179.80;1536.00;;;;;;5026081;28;20429;-76
2023/02/09 11:48:39;;;;;;;14.38;6.78;;;180.10;1510.40;;;;;;5028494;28;20115;-75
2023/02/09 11:51:18;;;;;;;10.75;5.85;;;180.10;1484.80;;;;;;5047534;28;20380;-76
2023/02/09 11:54:06;;;;;;;14.10;6.03;;;204.90;1484.80;;;;;;5027043;28;20021;-75
2023/02/09 11:56:43;;;;;;;11.63;6.55;;;180.10;1484.80;;;;;;5026449;28;20072;-76
2023/02/09 11:59:18;;;;;;;10.70;5.13;;;204.80;1459.20;;;;;;5028891;28;20021;-77
2023/02/09 12:01:47;;;;;;;10.37;4.87;;;180.00;1484.80;;;;;;5037872;28;20029;-75
2023/02/09 12:04:41;;;;;;;19.02;7.45;;;179.60;1510.40;;;;;;5063347;28;20093;-75
2023/02/09 12:07:29;;;;;;;12.90;6.78;;;179.60;1510.40;;;;;;5059490;28;20033;-75
2023/02/09 12:10:27;;;;;;;10.23;5.30;;;180.00;1510.40;;;;;;4965351;28;20034;-75
2023/02/09 12:12:53;;;;;;;11.98;6.10;;;179.70;1510.40;;;;;;4972234;28;20093;-75
2023/02/09 12:15:24;;;;;;;;;;;179.50;1510.40;;;;;;4982488;28;20121;-74
2023/02/09 12:17:57;;;;;;;12.25;6.28;;;179.60;1536.00;;;;;;4959470;28;19917;-74
2023/02/09 12:20:40;;;;;;;15.15;5.78;;;179.20;1536.00;;;;;;4985296;28;20034;-75
2023/02/09 12:23:37;;;;;;;9.98;5.68;;;179.50;1536.00;;;;;;4975030;28;20106;-75
2023/02/09 12:26:15;;;;;;;17.33;6.30;;;179.60;1536.00;;;;;;4970281;28;20053;-75
2023/02/09 12:29:21;;;;;;;11.15;5.57;;;179.20;1536.00;;;;;;4974377;28;20046;-75
2023/02/09 12:32:05;;;;;;;14.43;5.63;;;179.30;1536.00;;;;;;4980078;28;20046;-77
2023/02/09 12:34:38;;;;;;;15.48;6.03;;;154.50;1536.00;;;;;;4999374;28;20118;-78
2023/02/09 12:37:13;;;;;;;13.52;5.93;;;154.50;1561.60;;;;;;4999947;28;20023;-78
2023/02/09 12:40:10;;;;;;;12.95;6.82;;;179.30;1561.60;;;;;;4987903;28;20046;-78
2023/02/09 12:42:56;;;;;;;10.77;5.05;;;179.30;1536.00;;;;;;4998485;28;20041;-74
2023/02/09 12:45:37;;;;;;;11.13;5.72;;;154.50;1536.00;;;;;;4960230;28;20030;-75
2023/02/09 12:48:08;;;;;;;15.05;6.18;;;154.50;1561.60;;;;;;5040557;28;20090;-79
2023/02/09 12:50:47;;;;;;;16.70;7.43;;;154.50;1561.60;;;;;;5028972;28;20024;-77
2023/02/09 12:53:22;;;;;;;14.13;6.68;;;179.30;1561.60;;;;;;5046009;28;20501;-75
2023/02/09 12:55:57;;;;;;;13.95;6.25;;;179.30;1561.60;;;;;;5051073;28;20679;-78
2023/02/09 12:58:36;;;;;;;14.18;6.45;;;179.30;1561.60;;;;;;5050983;28;20036;-78
2023/02/09 13:01:02;;;;;;;13.90;7.05;;;154.50;1561.60;;;;;;5038537;28;20110;-79
2023/02/09 13:03:29;;;;;;;18.48;6.53;;;154.50;1561.60;;;;;;5031731;28;20105;-78
2023/02/09 13:05:59;;;;;;;14.75;6.70;;;154.50;1561.60;;;;;;5043381;28;20575;-80